sensor_id;sensor_type;location;lat;lon;timestamp;temperature;humidity
1367;DHT22;16877;48.810;9.282;2022-07-29T00:00:48;31.60;49.60
1367;DHT22;16877;48.810;9.282;2022-07-29T00:03:15;31.60;49.60
1367;DHT22;16877;48.810;9.282;2022-07-29T00:05:42;31.60;49.60
1367;DHT22;16877;48.810;9.282;2022-07-29T00:08:09;31.60;49.70
1367;DHT22;16877;48.810;9.282;2022-07-29T00:10:35;31.60;49.80
1367;DHT22;16877;48.810;9.282;2022-07-29T00:13:04;31.50;49.70
1367;DHT22;16877;48.810;9.282;2022-07-29T00:15:30;31.60;49.80
1367;DHT22;16877;48.810;9.282;2022-07-29T00:17:57;31.50;49.80
1367;DHT22;16877;48.810;9.282;2022-07-29T00:20:24;31.50;49.80
1367;DHT22;16877;48.810;9.282;2022-07-29T00:22:50;31.50;49.80
1367;DHT22;16877;48.810;9.282;2022-07-29T00:25:18;31.50;49.80
1367;DHT22;16877;48.810;9.282;2022-07-29T00:27:45;31.50;49.80
1367;DHT22;16877;48.810;9.282;2022-07-29T00:30:13;31.50;49.80
1367;DHT22;16877;48.810;9.282;2022-07-29T00:32:40;31.50;49.90
1367;DHT22;16877;48.810;9.282;2022-07-29T00:35:08;31.50;49.90
1367;DHT22;16877;48.810;9.282;2022-07-29T00:37:52;31.50;49.90
1367;DHT22;16877;48.810;9.282;2022-07-29T00:40:19;31.50;50.10
1367;DHT22;16877;48.810;9.282;2022-07-29T00:42:47;31.50;50.10
1367;DHT22;16877;48.810;9.282;2022-07-29T00:45:16;31.50;50.10
1367;DHT22;16877;48.810;9.282;2022-07-29T00:47:44;31.50;50.10
1367;DHT22;16877;48.810;9.282;2022-07-29T00:50:12;31.40;50.00
1367;DHT22;16877;48.810;9.282;2022-07-29T00:52:40;31.30;50.20
1367;DHT22;16877;48.810;9.282;2022-07-29T00:55:09;31.30;50.30
1367;DHT22;16877;48.810;9.282;2022-07-29T00:57:36;31.30;50.30
1367;DHT22;16877;48.810;9.282;2022-07-29T01:00:04;31.30;50.90
1367;DHT22;16877;48.810;9.282;2022-07-29T01:02:32;31.30;50.30
1367;DHT22;16877;48.810;9.282;2022-07-29T01:04:59;31.30;50.30
1367;DHT22;16877;48.810;9.282;2022-07-29T01:07:26;31.30;50.40
1367;DHT22;16877;48.810;9.282;2022-07-29T01:09:54;31.30;50.30
1367;DHT22;16877;48.810;9.282;2022-07-29T01:12:23;31.40;50.40
1367;DHT22;16877;48.810;9.282;2022-07-29T01:14:52;31.40;50.50
1367;DHT22;16877;48.810;9.282;2022-07-29T01:17:24;31.30;50.40
1367;DHT22;16877;48.810;9.282;2022-07-29T01:20:00;31.40;50.50
1367;DHT22;16877;48.810;9.282;2022-07-29T01:22:35;31.30;50.60
1367;DHT22;16877;48.810;9.282;2022-07-29T01:25:17;31.30;50.60
1367;DHT22;16877;48.810;9.282;2022-07-29T01:28:01;31.30;50.70
1367;DHT22;16877;48.810;9.282;2022-07-29T01:30:35;31.30;50.80
1367;DHT22;16877;48.810;9.282;2022-07-29T01:33:06;31.30;50.80
1367;DHT22;16877;48.810;9.282;2022-07-29T01:35:38;31.30;50.90
1367;DHT22;16877;48.810;9.282;2022-07-29T01:38:09;31.30;50.90
1367;DHT22;16877;48.810;9.282;2022-07-29T01:40:42;31.30;50.90
1367;DHT22;16877;48.810;9.282;2022-07-29T01:43:12;31.30;50.90
1367;DHT22;16877;48.810;9.282;2022-07-29T01:45:45;31.30;50.90
1367;DHT22;16877;48.810;9.282;2022-07-29T01:48:16;31.30;50.90
1367;DHT22;16877;48.810;9.282;2022-07-29T01:50:48;31.30;50.90
1367;DHT22;16877;48.810;9.282;2022-07-29T01:53:21;31.30;51.00
1367;DHT22;16877;48.810;9.282;2022-07-29T01:55:50;31.30;50.90
1367;DHT22;16877;48.810;9.282;2022-07-29T01:58:19;31.30;51.00
1367;DHT22;16877;48.810;9.282;2022-07-29T02:00:49;31.30;51.00
1367;DHT22;16877;48.810;9.282;2022-07-29T02:03:17;31.30;51.10
1367;DHT22;16877;48.810;9.282;2022-07-29T02:05:46;31.30;51.10
1367;DHT22;16877;48.810;9.282;2022-07-29T02:08:15;31.30;51.10
1367;DHT22;16877;48.810;9.282;2022-07-29T02:10:44;31.30;51.20
1367;DHT22;16877;48.810;9.282;2022-07-29T02:13:12;31.30;51.10
1367;DHT22;16877;48.810;9.282;2022-07-29T02:15:42;31.30;51.20
1367;DHT22;16877;48.810;9.282;2022-07-29T02:18:14;31.30;51.30
1367;DHT22;16877;48.810;9.282;2022-07-29T02:20:45;31.30;51.20
1367;DHT22;16877;48.810;9.282;2022-07-29T02:23:14;31.30;51.30
1367;DHT22;16877;48.810;9.282;2022-07-29T02:25:42;31.20;51.30
1367;DHT22;16877;48.810;9.282;2022-07-29T02:28:10;31.20;51.30
1367;DHT22;16877;48.810;9.282;2022-07-29T02:30:40;31.20;51.30
1367;DHT22;16877;48.810;9.282;2022-07-29T02:33:12;31.20;51.40
1367;DHT22;16877;48.810;9.282;2022-07-29T02:35:40;31.20;51.40
1367;DHT22;16877;48.810;9.282;2022-07-29T02:38:18;31.20;51.30
1367;DHT22;16877;48.810;9.282;2022-07-29T02:41:07;31.20;51.40
1367;DHT22;16877;48.810;9.282;2022-07-29T02:43:37;31.20;51.40
1367;DHT22;16877;48.810;9.282;2022-07-29T02:46:05;31.20;51.50
1367;DHT22;16877;48.810;9.282;2022-07-29T02:48:38;31.20;51.50
1367;DHT22;16877;48.810;9.282;2022-07-29T02:51:10;31.20;51.50
1367;DHT22;16877;48.810;9.282;2022-07-29T02:53:41;31.20;51.60
1367;DHT22;16877;48.810;9.282;2022-07-29T02:56:12;31.20;51.60
1367;DHT22;16877;48.810;9.282;2022-07-29T02:58:42;31.20;51.60
1367;DHT22;16877;48.810;9.282;2022-07-29T03:01:13;31.20;51.60
1367;DHT22;16877;48.810;9.282;2022-07-29T03:03:43;31.10;51.60
1367;DHT22;16877;48.810;9.282;2022-07-29T03:06:12;31.20;51.70
1367;DHT22;16877;48.810;9.282;2022-07-29T03:08:41;31.10;51.60
1367;DHT22;16877;48.810;9.282;2022-07-29T03:11:09;31.10;51.60
1367;DHT22;16877;48.810;9.282;2022-07-29T03:13:36;31.10;51.70
1367;DHT22;16877;48.810;9.282;2022-07-29T03:16:04;31.10;51.70
1367;DHT22;16877;48.810;9.282;2022-07-29T03:18:31;31.10;51.70
1367;DHT22;16877;48.810;9.282;2022-07-29T03:20:58;31.10;51.70
1367;DHT22;16877;48.810;9.282;2022-07-29T03:23:25;31.10;51.80
1367;DHT22;16877;48.810;9.282;2022-07-29T03:25:55;31.10;51.80
1367;DHT22;16877;48.810;9.282;2022-07-29T03:28:22;31.10;51.80
1367;DHT22;16877;48.810;9.282;2022-07-29T03:30:49;31.00;51.80
1367;DHT22;16877;48.810;9.282;2022-07-29T03:33:16;31.00;51.80
1367;DHT22;16877;48.810;9.282;2022-07-29T03:35:43;31.00;51.80
1367;DHT22;16877;48.810;9.282;2022-07-29T03:38:10;31.00;51.80
1367;DHT22;16877;48.810;9.282;2022-07-29T03:40:40;31.00;51.90
1367;DHT22;16877;48.810;9.282;2022-07-29T03:43:11;31.00;51.90
1367;DHT22;16877;48.810;9.282;2022-07-29T03:45:40;31.00;52.00
1367;DHT22;16877;48.810;9.282;2022-07-29T03:48:11;31.00;51.90
1367;DHT22;16877;48.810;9.282;2022-07-29T03:50:39;31.00;51.90
1367;DHT22;16877;48.810;9.282;2022-07-29T03:53:06;31.00;52.00
1367;DHT22;16877;48.810;9.282;2022-07-29T03:55:39;31.00;52.00
1367;DHT22;16877;48.810;9.282;2022-07-29T03:58:06;31.00;52.00
1367;DHT22;16877;48.810;9.282;2022-07-29T04:00:35;30.90;52.00
1367;DHT22;16877;48.810;9.282;2022-07-29T04:03:04;31.00;52.10
1367;DHT22;16877;48.810;9.282;2022-07-29T04:05:31;31.00;52.00
1367;DHT22;16877;48.810;9.282;2022-07-29T04:07:57;30.90;52.10
1367;DHT22;16877;48.810;9.282;2022-07-29T04:10:24;30.90;52.10
1367;DHT22;16877;48.810;9.282;2022-07-29T04:12:51;30.90;52.00
1367;DHT22;16877;48.810;9.282;2022-07-29T04:15:18;30.90;52.10
1367;DHT22;16877;48.810;9.282;2022-07-29T04:17:46;31.00;52.10
1367;DHT22;16877;48.810;9.282;2022-07-29T04:20:12;31.00;52.10
1367;DHT22;16877;48.810;9.282;2022-07-29T04:22:39;31.00;52.10
1367;DHT22;16877;48.810;9.282;2022-07-29T04:25:07;31.00;52.10
1367;DHT22;16877;48.810;9.282;2022-07-29T04:27:34;31.00;52.10
1367;DHT22;16877;48.810;9.282;2022-07-29T04:30:01;31.00;52.10
1367;DHT22;16877;48.810;9.282;2022-07-29T04:32:28;31.00;52.10
1367;DHT22;16877;48.810;9.282;2022-07-29T04:34:56;31.00;52.10
1367;DHT22;16877;48.810;9.282;2022-07-29T04:37:22;31.00;52.10
1367;DHT22;16877;48.810;9.282;2022-07-29T04:39:49;31.00;52.10
1367;DHT22;16877;48.810;9.282;2022-07-29T04:42:16;31.00;52.10
1367;DHT22;16877;48.810;9.282;2022-07-29T04:44:42;31.00;52.10
1367;DHT22;16877;48.810;9.282;2022-07-29T04:47:09;31.00;52.10
1367;DHT22;16877;48.810;9.282;2022-07-29T04:49:37;31.00;52.10
1367;DHT22;16877;48.810;9.282;2022-07-29T04:52:06;31.00;52.00
1367;DHT22;16877;48.810;9.282;2022-07-29T04:54:33;31.10;52.10
1367;DHT22;16877;48.810;9.282;2022-07-29T04:56:59;31.10;52.00
1367;DHT22;16877;48.810;9.282;2022-07-29T04:59:26;31.10;52.00
1367;DHT22;16877;48.810;9.282;2022-07-29T05:01:53;31.10;52.00
1367;DHT22;16877;48.810;9.282;2022-07-29T05:04:19;31.10;51.90
1367;DHT22;16877;48.810;9.282;2022-07-29T05:06:46;31.10;51.90
1367;DHT22;16877;48.810;9.282;2022-07-29T05:09:14;31.10;51.90
1367;DHT22;16877;48.810;9.282;2022-07-29T05:11:41;31.10;52.00
1367;DHT22;16877;48.810;9.282;2022-07-29T05:14:08;31.20;51.90
1367;DHT22;16877;48.810;9.282;2022-07-29T05:16:34;31.20;51.90
1367;DHT22;16877;48.810;9.282;2022-07-29T05:19:01;31.20;51.90
1367;DHT22;16877;48.810;9.282;2022-07-29T05:21:28;31.30;51.90
1367;DHT22;16877;48.810;9.282;2022-07-29T05:23:54;31.30;51.80
1367;DHT22;16877;48.810;9.282;2022-07-29T05:26:22;31.30;51.70
1367;DHT22;16877;48.810;9.282;2022-07-29T05:28:49;31.30;51.70
1367;DHT22;16877;48.810;9.282;2022-07-29T05:31:16;31.40;51.70
1367;DHT22;16877;48.810;9.282;2022-07-29T05:33:42;31.40;51.70
1367;DHT22;16877;48.810;9.282;2022-07-29T05:36:09;31.40;51.70
1367;DHT22;16877;48.810;9.282;2022-07-29T05:38:37;31.50;51.70
1367;DHT22;16877;48.810;9.282;2022-07-29T05:41:04;31.50;51.70
1367;DHT22;16877;48.810;9.282;2022-07-29T05:43:33;31.50;51.60
1367;DHT22;16877;48.810;9.282;2022-07-29T05:46:00;31.60;51.60
1367;DHT22;16877;48.810;9.282;2022-07-29T05:48:27;31.60;51.50
1367;DHT22;16877;48.810;9.282;2022-07-29T05:50:54;31.70;51.50
1367;DHT22;16877;48.810;9.282;2022-07-29T05:53:21;31.60;51.50
1367;DHT22;16877;48.810;9.282;2022-07-29T05:55:48;31.70;51.50
1367;DHT22;16877;48.810;9.282;2022-07-29T05:58:15;31.70;51.40
1367;DHT22;16877;48.810;9.282;2022-07-29T06:00:43;31.80;51.50
1367;DHT22;16877;48.810;9.282;2022-07-29T06:03:10;31.80;52.10
1367;DHT22;16877;48.810;9.282;2022-07-29T06:05:37;31.70;52.20
1367;DHT22;16877;48.810;9.282;2022-07-29T06:08:04;31.60;51.70
1367;DHT22;16877;48.810;9.282;2022-07-29T06:10:31;31.50;52.00
1367;DHT22;16877;48.810;9.282;2022-07-29T06:12:57;31.40;52.20
1367;DHT22;16877;48.810;9.282;2022-07-29T06:15:24;31.30;52.40
1367;DHT22;16877;48.810;9.282;2022-07-29T06:17:52;31.30;52.70
1367;DHT22;16877;48.810;9.282;2022-07-29T06:20:19;31.20;52.90
1367;DHT22;16877;48.810;9.282;2022-07-29T06:22:46;31.20;52.90
1367;DHT22;16877;48.810;9.282;2022-07-29T06:25:12;31.20;52.80
1367;DHT22;16877;48.810;9.282;2022-07-29T06:27:39;31.10;52.70
1367;DHT22;16877;48.810;9.282;2022-07-29T06:30:06;31.10;52.70
1367;DHT22;16877;48.810;9.282;2022-07-29T06:32:35;31.20;52.70
1367;DHT22;16877;48.810;9.282;2022-07-29T06:35:04;31.20;52.40
1367;DHT22;16877;48.810;9.282;2022-07-29T06:37:31;31.10;52.00
1367;DHT22;16877;48.810;9.282;2022-07-29T06:39:57;30.80;51.90
1367;DHT22;16877;48.810;9.282;2022-07-29T06:42:41;30.50;52.10
1367;DHT22;16877;48.810;9.282;2022-07-29T06:45:09;30.50;52.70
1367;DHT22;16877;48.810;9.282;2022-07-29T06:47:36;30.50;52.70
1367;DHT22;16877;48.810;9.282;2022-07-29T06:50:05;30.70;52.60
1367;DHT22;16877;48.810;9.282;2022-07-29T06:52:31;30.80;52.50
1367;DHT22;16877;48.810;9.282;2022-07-29T06:54:58;30.80;52.40
1367;DHT22;16877;48.810;9.282;2022-07-29T06:57:25;30.70;52.10
1367;DHT22;16877;48.810;9.282;2022-07-29T06:59:51;30.70;52.50
1367;DHT22;16877;48.810;9.282;2022-07-29T07:02:18;30.60;52.60
1367;DHT22;16877;48.810;9.282;2022-07-29T07:04:45;30.40;52.90
1367;DHT22;16877;48.810;9.282;2022-07-29T07:07:13;30.20;53.30
1367;DHT22;16877;48.810;9.282;2022-07-29T07:09:39;30.30;53.40
1367;DHT22;16877;48.810;9.282;2022-07-29T07:12:06;30.60;53.20
1367;DHT22;16877;48.810;9.282;2022-07-29T07:14:33;30.90;52.90
1367;DHT22;16877;48.810;9.282;2022-07-29T07:17:00;31.10;52.60
1367;DHT22;16877;48.810;9.282;2022-07-29T07:19:29;31.20;52.30
1367;DHT22;16877;48.810;9.282;2022-07-29T07:21:55;31.50;52.10
1367;DHT22;16877;48.810;9.282;2022-07-29T07:24:23;31.60;51.80
1367;DHT22;16877;48.810;9.282;2022-07-29T07:26:50;31.80;51.60
1367;DHT22;16877;48.810;9.282;2022-07-29T07:29:17;32.00;51.20
1367;DHT22;16877;48.810;9.282;2022-07-29T07:31:44;32.00;51.20
1367;DHT22;16877;48.810;9.282;2022-07-29T07:34:10;32.10;51.10
1367;DHT22;16877;48.810;9.282;2022-07-29T07:36:37;32.30;51.00
1367;DHT22;16877;48.810;9.282;2022-07-29T07:39:04;32.30;50.80
1367;DHT22;16877;48.810;9.282;2022-07-29T07:41:32;32.20;50.90
1367;DHT22;16877;48.810;9.282;2022-07-29T07:43:59;32.00;51.10
1367;DHT22;16877;48.810;9.282;2022-07-29T07:46:26;32.10;51.30
1367;DHT22;16877;48.810;9.282;2022-07-29T07:48:53;32.20;51.20
1367;DHT22;16877;48.810;9.282;2022-07-29T07:51:19;32.20;51.20
1367;DHT22;16877;48.810;9.282;2022-07-29T07:53:46;32.20;51.70
1367;DHT22;16877;48.810;9.282;2022-07-29T07:56:15;32.30;51.70
1367;DHT22;16877;48.810;9.282;2022-07-29T07:58:43;32.20;52.20
1367;DHT22;16877;48.810;9.282;2022-07-29T08:01:10;32.10;52.00
1367;DHT22;16877;48.810;9.282;2022-07-29T08:03:37;32.10;51.90
1367;DHT22;16877;48.810;9.282;2022-07-29T08:06:04;32.10;52.00
1367;DHT22;16877;48.810;9.282;2022-07-29T08:08:31;32.20;52.10
1367;DHT22;16877;48.810;9.282;2022-07-29T08:10:58;32.30;52.10
1367;DHT22;16877;48.810;9.282;2022-07-29T08:13:27;32.40;52.20
1367;DHT22;16877;48.810;9.282;2022-07-29T08:15:57;32.50;51.50
1367;DHT22;16877;48.810;9.282;2022-07-29T08:18:26;32.60;51.50
1367;DHT22;16877;48.810;9.282;2022-07-29T08:20:53;32.60;51.20
1367;DHT22;16877;48.810;9.282;2022-07-29T08:23:20;32.50;51.20
1367;DHT22;16877;48.810;9.282;2022-07-29T08:25:46;32.30;51.40
1367;DHT22;16877;48.810;9.282;2022-07-29T08:28:13;32.50;51.50
1367;DHT22;16877;48.810;9.282;2022-07-29T08:30:40;32.70;51.70
1367;DHT22;16877;48.810;9.282;2022-07-29T08:33:08;32.90;51.20
1367;DHT22;16877;48.810;9.282;2022-07-29T08:35:35;33.10;50.90
1367;DHT22;16877;48.810;9.282;2022-07-29T08:38:02;33.20;50.80
1367;DHT22;16877;48.810;9.282;2022-07-29T08:40:29;33.30;50.70
1367;DHT22;16877;48.810;9.282;2022-07-29T08:42:55;33.20;50.60
1367;DHT22;16877;48.810;9.282;2022-07-29T08:45:23;33.10;50.50
1367;DHT22;16877;48.810;9.282;2022-07-29T08:47:49;33.20;51.10
1367;DHT22;16877;48.810;9.282;2022-07-29T08:50:17;33.40;50.30
1367;DHT22;16877;48.810;9.282;2022-07-29T08:52:44;33.50;50.20
1367;DHT22;16877;48.810;9.282;2022-07-29T08:55:11;33.70;49.90
1367;DHT22;16877;48.810;9.282;2022-07-29T08:57:42;33.80;49.70
1367;DHT22;16877;48.810;9.282;2022-07-29T09:00:09;34.00;49.30
1367;DHT22;16877;48.810;9.282;2022-07-29T09:02:39;34.20;49.10
1367;DHT22;16877;48.810;9.282;2022-07-29T09:05:07;34.30;49.00
1367;DHT22;16877;48.810;9.282;2022-07-29T09:07:35;34.50;48.70
1367;DHT22;16877;48.810;9.282;2022-07-29T09:10:04;34.70;48.40
1367;DHT22;16877;48.810;9.282;2022-07-29T09:12:31;34.70;48.00
1367;DHT22;16877;48.810;9.282;2022-07-29T09:14:58;34.90;48.00
1367;DHT22;16877;48.810;9.282;2022-07-29T09:17:39;35.10;47.60
1367;DHT22;16877;48.810;9.282;2022-07-29T09:20:09;35.30;47.40
1367;DHT22;16877;48.810;9.282;2022-07-29T09:22:37;35.30;47.30
1367;DHT22;16877;48.810;9.282;2022-07-29T09:25:05;35.20;46.90
1367;DHT22;16877;48.810;9.282;2022-07-29T09:27:32;35.30;46.80
1367;DHT22;16877;48.810;9.282;2022-07-29T09:30:01;35.50;46.50
1367;DHT22;16877;48.810;9.282;2022-07-29T09:32:28;35.50;45.50
1367;DHT22;16877;48.810;9.282;2022-07-29T09:35:13;35.70;45.10
1367;DHT22;16877;48.810;9.282;2022-07-29T09:37:42;35.60;44.50
1367;DHT22;16877;48.810;9.282;2022-07-29T09:40:14;35.90;44.80
1367;DHT22;16877;48.810;9.282;2022-07-29T09:42:42;35.90;44.50
1367;DHT22;16877;48.810;9.282;2022-07-29T09:45:09;36.20;44.90
1367;DHT22;16877;48.810;9.282;2022-07-29T09:47:44;36.50;43.90
1367;DHT22;16877;48.810;9.282;2022-07-29T09:50:12;36.70;43.80
1367;DHT22;16877;48.810;9.282;2022-07-29T09:52:47;37.00;43.80
1367;DHT22;16877;48.810;9.282;2022-07-29T09:55:14;37.10;42.70
1367;DHT22;16877;48.810;9.282;2022-07-29T09:57:40;37.40;42.10
1367;DHT22;16877;48.810;9.282;2022-07-29T10:00:09;37.50;41.50
1367;DHT22;16877;48.810;9.282;2022-07-29T10:02:37;37.50;41.20
1367;DHT22;16877;48.810;9.282;2022-07-29T10:05:06;37.70;41.30
1367;DHT22;16877;48.810;9.282;2022-07-29T10:07:44;37.60;40.80
1367;DHT22;16877;48.810;9.282;2022-07-29T10:10:19;37.70;40.50
1367;DHT22;16877;48.810;9.282;2022-07-29T10:12:50;37.70;40.70
1367;DHT22;16877;48.810;9.282;2022-07-29T10:15:18;37.60;40.50
1367;DHT22;16877;48.810;9.282;2022-07-29T10:17:45;37.90;40.30
1367;DHT22;16877;48.810;9.282;2022-07-29T10:20:12;37.90;40.10
1367;DHT22;16877;48.810;9.282;2022-07-29T10:22:39;38.00;39.80
1367;DHT22;16877;48.810;9.282;2022-07-29T10:25:07;37.90;39.70
1367;DHT22;16877;48.810;9.282;2022-07-29T10:27:36;37.90;39.50
1367;DHT22;16877;48.810;9.282;2022-07-29T10:30:05;38.00;39.70
1367;DHT22;16877;48.810;9.282;2022-07-29T10:32:51;38.00;39.60
1367;DHT22;16877;48.810;9.282;2022-07-29T10:35:40;37.70;39.60
1367;DHT22;16877;48.810;9.282;2022-07-29T10:41:14;37.10;40.20
1367;DHT22;16877;48.810;9.282;2022-07-29T10:44:01;36.70;40.40
1367;DHT22;16877;48.810;9.282;2022-07-29T10:46:28;36.60;40.80
1367;DHT22;16877;48.810;9.282;2022-07-29T10:49:11;36.40;41.10
1367;DHT22;16877;48.810;9.282;2022-07-29T10:51:56;36.20;41.20
1367;DHT22;16877;48.810;9.282;2022-07-29T10:54:43;36.00;41.30
1367;DHT22;16877;48.810;9.282;2022-07-29T10:57:20;35.80;41.60
1367;DHT22;16877;48.810;9.282;2022-07-29T10:59:49;35.60;41.80
1367;DHT22;16877;48.810;9.282;2022-07-29T11:02:45;35.30;42.40
1367;DHT22;16877;48.810;9.282;2022-07-29T11:05:14;35.20;43.00
1367;DHT22;16877;48.810;9.282;2022-07-29T11:10:43;34.70;44.30
1367;DHT22;16877;48.810;9.282;2022-07-29T11:13:10;34.30;45.20
1367;DHT22;16877;48.810;9.282;2022-07-29T11:18:30;34.10;46.80
1367;DHT22;16877;48.810;9.282;2022-07-29T11:20:57;34.10;48.60
1367;DHT22;16877;48.810;9.282;2022-07-29T11:23:26;34.00;48.00
1367;DHT22;16877;48.810;9.282;2022-07-29T11:26:16;33.80;49.20
1367;DHT22;16877;48.810;9.282;2022-07-29T11:28:57;33.30;51.10
1367;DHT22;16877;48.810;9.282;2022-07-29T11:31:35;32.80;51.90
1367;DHT22;16877;48.810;9.282;2022-07-29T11:34:32;32.60;52.60
1367;DHT22;16877;48.810;9.282;2022-07-29T11:37:23;32.40;52.90
1367;DHT22;16877;48.810;9.282;2022-07-29T11:40:15;32.20;52.60
1367;DHT22;16877;48.810;9.282;2022-07-29T11:42:51;32.10;53.30
1367;DHT22;16877;48.810;9.282;2022-07-29T11:45:19;31.50;52.70
1367;DHT22;16877;48.810;9.282;2022-07-29T11:47:50;31.30;52.60
1367;DHT22;16877;48.810;9.282;2022-07-29T11:50:31;31.20;53.10
1367;DHT22;16877;48.810;9.282;2022-07-29T11:52:58;30.90;53.20
1367;DHT22;16877;48.810;9.282;2022-07-29T11:55:25;30.70;54.10
1367;DHT22;16877;48.810;9.282;2022-07-29T11:57:53;30.50;53.60
1367;DHT22;16877;48.810;9.282;2022-07-29T12:00:28;30.50;53.80
1367;DHT22;16877;48.810;9.282;2022-07-29T12:02:56;30.50;53.70
1367;DHT22;16877;48.810;9.282;2022-07-29T12:05:33;30.70;53.60
1367;DHT22;16877;48.810;9.282;2022-07-29T12:08:08;30.90;53.80
1367;DHT22;16877;48.810;9.282;2022-07-29T12:10:35;30.90;53.20
1367;DHT22;16877;48.810;9.282;2022-07-29T12:13:02;31.10;53.00
1367;DHT22;16877;48.810;9.282;2022-07-29T12:15:29;31.10;52.90
1367;DHT22;16877;48.810;9.282;2022-07-29T12:17:56;31.20;53.10
1367;DHT22;16877;48.810;9.282;2022-07-29T12:20:24;31.20;52.80
1367;DHT22;16877;48.810;9.282;2022-07-29T12:22:52;31.30;52.70
1367;DHT22;16877;48.810;9.282;2022-07-29T12:25:21;31.30;52.50
1367;DHT22;16877;48.810;9.282;2022-07-29T12:27:57;31.50;52.30
1367;DHT22;16877;48.810;9.282;2022-07-29T12:30:37;31.60;51.90
1367;DHT22;16877;48.810;9.282;2022-07-29T12:33:14;31.80;51.70
1367;DHT22;16877;48.810;9.282;2022-07-29T12:35:42;32.10;51.40
1367;DHT22;16877;48.810;9.282;2022-07-29T12:38:11;32.30;51.30
1367;DHT22;16877;48.810;9.282;2022-07-29T12:40:38;32.60;51.10
1367;DHT22;16877;48.810;9.282;2022-07-29T12:43:07;32.90;51.00
1367;DHT22;16877;48.810;9.282;2022-07-29T12:45:35;32.90;50.60
1367;DHT22;16877;48.810;9.282;2022-07-29T12:48:02;33.00;50.30
1367;DHT22;16877;48.810;9.282;2022-07-29T12:50:29;33.00;50.00
1367;DHT22;16877;48.810;9.282;2022-07-29T12:53:08;33.00;49.70
1367;DHT22;16877;48.810;9.282;2022-07-29T12:55:43;33.00;49.50
1367;DHT22;16877;48.810;9.282;2022-07-29T12:58:10;33.00;49.20
1367;DHT22;16877;48.810;9.282;2022-07-29T13:00:37;32.90;48.70
1367;DHT22;16877;48.810;9.282;2022-07-29T13:03:03;32.90;48.40
1367;DHT22;16877;48.810;9.282;2022-07-29T13:05:41;32.90;48.40
1367;DHT22;16877;48.810;9.282;2022-07-29T13:08:12;32.80;47.80
1367;DHT22;16877;48.810;9.282;2022-07-29T13:10:41;32.60;47.60
1367;DHT22;16877;48.810;9.282;2022-07-29T13:13:09;32.50;47.20
1367;DHT22;16877;48.810;9.282;2022-07-29T13:15:37;32.40;46.90
1367;DHT22;16877;48.810;9.282;2022-07-29T13:18:04;32.20;47.00
1367;DHT22;16877;48.810;9.282;2022-07-29T13:20:32;32.10;47.00
1367;DHT22;16877;48.810;9.282;2022-07-29T13:23:00;32.00;47.10
1367;DHT22;16877;48.810;9.282;2022-07-29T13:25:28;32.00;47.20
1367;DHT22;16877;48.810;9.282;2022-07-29T13:27:56;32.00;47.10
1367;DHT22;16877;48.810;9.282;2022-07-29T13:30:23;31.90;46.90
1367;DHT22;16877;48.810;9.282;2022-07-29T13:32:51;31.90;47.00
1367;DHT22;16877;48.810;9.282;2022-07-29T13:35:18;31.90;47.40
1367;DHT22;16877;48.810;9.282;2022-07-29T13:37:46;31.70;48.20
1367;DHT22;16877;48.810;9.282;2022-07-29T13:40:13;31.60;48.60
1367;DHT22;16877;48.810;9.282;2022-07-29T13:42:40;31.50;49.20
1367;DHT22;16877;48.810;9.282;2022-07-29T13:45:09;31.40;49.40
1367;DHT22;16877;48.810;9.282;2022-07-29T13:47:37;31.30;50.00
1367;DHT22;16877;48.810;9.282;2022-07-29T13:50:06;31.10;50.60
1367;DHT22;16877;48.810;9.282;2022-07-29T13:52:33;31.10;51.00
1367;DHT22;16877;48.810;9.282;2022-07-29T13:55:00;31.00;51.40
1367;DHT22;16877;48.810;9.282;2022-07-29T13:57:27;31.00;51.50
1367;DHT22;16877;48.810;9.282;2022-07-29T13:59:54;31.00;51.70
1367;DHT22;16877;48.810;9.282;2022-07-29T14:02:22;30.90;51.80
1367;DHT22;16877;48.810;9.282;2022-07-29T14:04:49;30.90;51.70
1367;DHT22;16877;48.810;9.282;2022-07-29T14:07:16;31.10;51.70
1367;DHT22;16877;48.810;9.282;2022-07-29T14:09:43;31.20;51.50
1367;DHT22;16877;48.810;9.282;2022-07-29T14:12:10;31.30;51.40
1367;DHT22;16877;48.810;9.282;2022-07-29T14:14:37;31.50;51.30
1367;DHT22;16877;48.810;9.282;2022-07-29T14:17:04;31.70;51.10
1367;DHT22;16877;48.810;9.282;2022-07-29T14:19:33;31.80;50.90
1367;DHT22;16877;48.810;9.282;2022-07-29T14:22:03;31.90;51.10
1367;DHT22;16877;48.810;9.282;2022-07-29T14:24:30;32.10;51.10
1367;DHT22;16877;48.810;9.282;2022-07-29T14:26:56;32.20;51.00
1367;DHT22;16877;48.810;9.282;2022-07-29T14:29:23;32.30;51.00
1367;DHT22;16877;48.810;9.282;2022-07-29T14:31:50;32.40;50.90
1367;DHT22;16877;48.810;9.282;2022-07-29T14:34:16;32.50;50.80
1367;DHT22;16877;48.810;9.282;2022-07-29T14:36:44;32.60;50.60
1367;DHT22;16877;48.810;9.282;2022-07-29T14:39:11;32.70;50.60
1367;DHT22;16877;48.810;9.282;2022-07-29T14:41:38;32.80;50.50
1367;DHT22;16877;48.810;9.282;2022-07-29T14:44:04;32.80;50.50
1367;DHT22;16877;48.810;9.282;2022-07-29T14:46:31;32.80;50.80
1367;DHT22;16877;48.810;9.282;2022-07-29T14:48:58;32.90;51.00
1367;DHT22;16877;48.810;9.282;2022-07-29T14:51:25;32.80;51.00
1367;DHT22;16877;48.810;9.282;2022-07-29T14:53:53;32.80;51.40
1367;DHT22;16877;48.810;9.282;2022-07-29T14:56:21;32.80;51.30
1367;DHT22;16877;48.810;9.282;2022-07-29T14:58:48;32.80;51.30
1367;DHT22;16877;48.810;9.282;2022-07-29T15:01:15;32.80;51.50
1367;DHT22;16877;48.810;9.282;2022-07-29T15:03:41;32.80;51.10
1367;DHT22;16877;48.810;9.282;2022-07-29T15:06:08;32.80;50.80
1367;DHT22;16877;48.810;9.282;2022-07-29T15:08:35;32.90;50.60
1367;DHT22;16877;48.810;9.282;2022-07-29T15:11:02;32.90;50.20
1367;DHT22;16877;48.810;9.282;2022-07-29T15:13:29;32.90;50.10
1367;DHT22;16877;48.810;9.282;2022-07-29T15:15:56;32.90;49.90
1367;DHT22;16877;48.810;9.282;2022-07-29T15:18:22;33.00;49.50
1367;DHT22;16877;48.810;9.282;2022-07-29T15:20:49;33.00;49.30
1367;DHT22;16877;48.810;9.282;2022-07-29T15:23:16;33.00;48.30
1367;DHT22;16877;48.810;9.282;2022-07-29T15:25:43;33.00;48.30
1367;DHT22;16877;48.810;9.282;2022-07-29T15:28:11;33.00;48.10
1367;DHT22;16877;48.810;9.282;2022-07-29T15:30:37;33.00;48.00
1367;DHT22;16877;48.810;9.282;2022-07-29T15:33:06;33.00;48.00
1367;DHT22;16877;48.810;9.282;2022-07-29T15:35:33;33.00;48.00
1367;DHT22;16877;48.810;9.282;2022-07-29T15:38:00;33.00;48.10
1367;DHT22;16877;48.810;9.282;2022-07-29T15:40:27;33.00;48.10
1367;DHT22;16877;48.810;9.282;2022-07-29T15:42:54;33.00;48.00
1367;DHT22;16877;48.810;9.282;2022-07-29T15:45:22;33.00;48.10
1367;DHT22;16877;48.810;9.282;2022-07-29T15:47:49;33.00;48.00
1367;DHT22;16877;48.810;9.282;2022-07-29T15:50:15;33.00;48.70
1367;DHT22;16877;48.810;9.282;2022-07-29T15:52:43;33.00;48.20
1367;DHT22;16877;48.810;9.282;2022-07-29T15:55:10;33.00;48.30
1367;DHT22;16877;48.810;9.282;2022-07-29T15:57:37;33.00;48.40
1367;DHT22;16877;48.810;9.282;2022-07-29T16:00:06;33.10;48.60
1367;DHT22;16877;48.810;9.282;2022-07-29T16:02:34;33.10;48.60
1367;DHT22;16877;48.810;9.282;2022-07-29T16:05:01;33.10;48.60